sensor_id;sensor_type;location;lat;lon;timestamp;P1;durP1;ratioP1;P2;durP2;ratioP2
53654;SDS011;39558;52.028;8.536;2023-04-09T00:01:06;9.00;;;6.13;;
53654;SDS011;39558;52.028;8.536;2023-04-09T00:03:32;9.05;;;6.15;;
53654;SDS011;39558;52.028;8.536;2023-04-09T00:05:58;9.00;;;6.15;;
53654;SDS011;39558;52.028;8.536;2023-04-09T00:08:24;9.55;;;6.30;;
53654;SDS011;39558;52.028;8.536;2023-04-09T00:10:51;8.50;;;5.60;;
53654;SDS011;39558;52.028;8.536;2023-04-09T00:13:17;9.60;;;6.03;;
53654;SDS011;39558;52.028;8.536;2023-04-09T00:15:43;9.70;;;6.05;;
53654;SDS011;39558;52.028;8.536;2023-04-09T00:18:09;9.70;;;6.22;;
53654;SDS011;39558;52.028;8.536;2023-04-09T00:20:35;9.68;;;6.70;;
53654;SDS011;39558;52.028;8.536;2023-04-09T00:23:01;9.02;;;6.22;;
53654;SDS011;39558;52.028;8.536;2023-04-09T00:25:27;10.77;;;6.82;;
53654;SDS011;39558;52.028;8.536;2023-04-09T00:27:53;9.27;;;6.38;;
53654;SDS011;39558;52.028;8.536;2023-04-09T00:30:21;10.50;;;6.72;;
53654;SDS011;39558;52.028;8.536;2023-04-09T00:32:47;9.13;;;6.32;;
53654;SDS011;39558;52.028;8.536;2023-04-09T00:35:12;9.40;;;6.45;;
53654;SDS011;39558;52.028;8.536;2023-04-09T00:37:38;8.98;;;5.85;;
53654;SDS011;39558;52.028;8.536;2023-04-09T00:40:04;9.63;;;6.75;;
53654;SDS011;39558;52.028;8.536;2023-04-09T00:42:31;8.77;;;5.97;;
53654;SDS011;39558;52.028;8.536;2023-04-09T00:44:57;8.68;;;5.78;;
53654;SDS011;39558;52.028;8.536;2023-04-09T00:47:24;9.95;;;6.03;;
53654;SDS011;39558;52.028;8.536;2023-04-09T00:49:50;9.80;;;6.55;;
53654;SDS011;39558;52.028;8.536;2023-04-09T00:52:15;10.80;;;6.72;;
53654;SDS011;39558;52.028;8.536;2023-04-09T00:54:41;9.70;;;6.50;;
53654;SDS011;39558;52.028;8.536;2023-04-09T00:57:07;8.80;;;5.90;;
53654;SDS011;39558;52.028;8.536;2023-04-09T00:59:36;9.18;;;5.78;;
53654;SDS011;39558;52.028;8.536;2023-04-09T01:02:02;11.73;;;6.60;;
53654;SDS011;39558;52.028;8.536;2023-04-09T01:04:27;11.32;;;6.35;;
53654;SDS011;39558;52.028;8.536;2023-04-09T01:07:04;10.80;;;6.57;;
53654;SDS011;39558;52.028;8.536;2023-04-09T01:09:36;9.13;;;6.40;;
53654;SDS011;39558;52.028;8.536;2023-04-09T01:12:22;10.73;;;6.57;;
53654;SDS011;39558;52.028;8.536;2023-04-09T01:14:55;9.63;;;6.18;;
53654;SDS011;39558;52.028;8.536;2023-04-09T01:17:30;9.23;;;6.25;;
53654;SDS011;39558;52.028;8.536;2023-04-09T01:22:30;11.57;;;6.07;;
53654;SDS011;39558;52.028;8.536;2023-04-09T01:25:06;9.68;;;6.35;;
53654;SDS011;39558;52.028;8.536;2023-04-09T01:27:38;10.40;;;6.93;;
53654;SDS011;39558;52.028;8.536;2023-04-09T01:30:06;9.15;;;6.18;;
53654;SDS011;39558;52.028;8.536;2023-04-09T01:32:34;10.55;;;6.57;;
53654;SDS011;39558;52.028;8.536;2023-04-09T01:35:01;9.18;;;6.10;;
53654;SDS011;39558;52.028;8.536;2023-04-09T01:37:28;8.77;;;5.97;;
53654;SDS011;39558;52.028;8.536;2023-04-09T01:39:54;9.98;;;6.20;;
53654;SDS011;39558;52.028;8.536;2023-04-09T01:42:20;10.15;;;6.25;;
53654;SDS011;39558;52.028;8.536;2023-04-09T01:44:46;9.45;;;7.03;;
53654;SDS011;39558;52.028;8.536;2023-04-09T01:47:12;9.75;;;6.30;;
53654;SDS011;39558;52.028;8.536;2023-04-09T01:49:38;9.75;;;6.32;;
53654;SDS011;39558;52.028;8.536;2023-04-09T01:52:05;9.23;;;6.40;;
53654;SDS011;39558;52.028;8.536;2023-04-09T01:54:31;10.23;;;7.22;;
53654;SDS011;39558;52.028;8.536;2023-04-09T01:56:57;11.60;;;6.78;;
53654;SDS011;39558;52.028;8.536;2023-04-09T01:59:23;9.32;;;6.22;;
53654;SDS011;39558;52.028;8.536;2023-04-09T02:01:52;9.43;;;6.38;;
53654;SDS011;39558;52.028;8.536;2023-04-09T02:04:21;10.25;;;6.68;;
53654;SDS011;39558;52.028;8.536;2023-04-09T02:06:52;10.30;;;6.78;;
53654;SDS011;39558;52.028;8.536;2023-04-09T02:09:20;9.93;;;6.93;;
53654;SDS011;39558;52.028;8.536;2023-04-09T02:11:48;11.32;;;6.63;;
53654;SDS011;39558;52.028;8.536;2023-04-09T02:14:15;13.27;;;7.28;;
53654;SDS011;39558;52.028;8.536;2023-04-09T02:16:41;11.38;;;6.75;;
53654;SDS011;39558;52.028;8.536;2023-04-09T02:19:07;9.05;;;6.15;;
53654;SDS011;39558;52.028;8.536;2023-04-09T02:21:33;9.88;;;6.00;;
53654;SDS011;39558;52.028;8.536;2023-04-09T02:23:59;10.57;;;6.70;;
53654;SDS011;39558;52.028;8.536;2023-04-09T02:26:24;10.85;;;6.70;;
53654;SDS011;39558;52.028;8.536;2023-04-09T02:28:50;11.27;;;7.03;;
53654;SDS011;39558;52.028;8.536;2023-04-09T02:31:16;8.07;;;6.00;;
53654;SDS011;39558;52.028;8.536;2023-04-09T02:33:42;10.73;;;6.30;;
53654;SDS011;39558;52.028;8.536;2023-04-09T02:36:11;11.40;;;6.47;;
53654;SDS011;39558;52.028;8.536;2023-04-09T02:38:40;10.63;;;6.47;;
53654;SDS011;39558;52.028;8.536;2023-04-09T02:41:07;9.05;;;6.07;;
53654;SDS011;39558;52.028;8.536;2023-04-09T02:43:33;9.43;;;6.25;;
53654;SDS011;39558;52.028;8.536;2023-04-09T02:45:59;11.73;;;7.05;;
53654;SDS011;39558;52.028;8.536;2023-04-09T02:48:24;9.88;;;6.85;;
53654;SDS011;39558;52.028;8.536;2023-04-09T02:50:50;10.18;;;6.78;;
53654;SDS011;39558;52.028;8.536;2023-04-09T02:53:16;11.73;;;6.90;;
53654;SDS011;39558;52.028;8.536;2023-04-09T02:55:42;9.88;;;6.20;;
53654;SDS011;39558;52.028;8.536;2023-04-09T02:58:08;8.65;;;5.85;;
53654;SDS011;39558;52.028;8.536;2023-04-09T03:00:34;8.45;;;5.85;;
53654;SDS011;39558;52.028;8.536;2023-04-09T03:03:00;9.38;;;6.20;;
53654;SDS011;39558;52.028;8.536;2023-04-09T03:05:26;9.60;;;6.43;;
53654;SDS011;39558;52.028;8.536;2023-04-09T03:07:52;9.30;;;6.25;;
53654;SDS011;39558;52.028;8.536;2023-04-09T03:10:18;9.60;;;6.65;;
53654;SDS011;39558;52.028;8.536;2023-04-09T03:12:44;11.63;;;7.85;;
53654;SDS011;39558;52.028;8.536;2023-04-09T03:15:11;9.70;;;6.50;;
53654;SDS011;39558;52.028;8.536;2023-04-09T03:17:37;9.38;;;6.45;;
53654;SDS011;39558;52.028;8.536;2023-04-09T03:20:04;10.82;;;7.07;;
53654;SDS011;39558;52.028;8.536;2023-04-09T03:22:34;11.70;;;6.78;;
53654;SDS011;39558;52.028;8.536;2023-04-09T03:25:00;10.55;;;6.60;;
53654;SDS011;39558;52.028;8.536;2023-04-09T03:27:26;9.80;;;6.10;;
53654;SDS011;39558;52.028;8.536;2023-04-09T03:29:54;8.45;;;5.45;;
53654;SDS011;39558;52.028;8.536;2023-04-09T03:32:20;8.80;;;6.20;;
53654;SDS011;39558;52.028;8.536;2023-04-09T03:34:46;9.30;;;6.45;;
53654;SDS011;39558;52.028;8.536;2023-04-09T03:37:12;10.40;;;6.18;;
53654;SDS011;39558;52.028;8.536;2023-04-09T03:39:38;7.18;;;5.20;;
53654;SDS011;39558;52.028;8.536;2023-04-09T03:42:03;9.85;;;6.10;;
53654;SDS011;39558;52.028;8.536;2023-04-09T03:44:29;9.18;;;6.25;;
53654;SDS011;39558;52.028;8.536;2023-04-09T03:46:55;7.82;;;5.55;;
53654;SDS011;39558;52.028;8.536;2023-04-09T03:49:21;7.22;;;5.07;;
53654;SDS011;39558;52.028;8.536;2023-04-09T03:51:47;8.57;;;5.97;;
53654;SDS011;39558;52.028;8.536;2023-04-09T03:54:13;8.38;;;5.47;;
53654;SDS011;39558;52.028;8.536;2023-04-09T03:56:39;9.85;;;6.15;;
53654;SDS011;39558;52.028;8.536;2023-04-09T03:59:05;8.35;;;5.30;;
53654;SDS011;39558;52.028;8.536;2023-04-09T04:01:31;7.70;;;5.80;;
53654;SDS011;39558;52.028;8.536;2023-04-09T04:03:57;7.95;;;5.65;;
53654;SDS011;39558;52.028;8.536;2023-04-09T04:06:23;7.30;;;5.35;;
53654;SDS011;39558;52.028;8.536;2023-04-09T04:08:48;8.00;;;4.80;;
53654;SDS011;39558;52.028;8.536;2023-04-09T04:11:14;8.20;;;5.30;;
53654;SDS011;39558;52.028;8.536;2023-04-09T04:13:40;7.78;;;5.32;;
53654;SDS011;39558;52.028;8.536;2023-04-09T04:16:09;8.88;;;5.28;;
53654;SDS011;39558;52.028;8.536;2023-04-09T04:18:35;8.15;;;5.43;;
53654;SDS011;39558;52.028;8.536;2023-04-09T04:21:01;7.00;;;4.88;;
53654;SDS011;39558;52.028;8.536;2023-04-09T04:23:27;7.43;;;5.22;;
53654;SDS011;39558;52.028;8.536;2023-04-09T04:25:53;8.02;;;5.22;;
53654;SDS011;39558;52.028;8.536;2023-04-09T04:28:20;6.57;;;4.68;;
53654;SDS011;39558;52.028;8.536;2023-04-09T04:30:46;6.93;;;4.80;;
53654;SDS011;39558;52.028;8.536;2023-04-09T04:33:12;5.75;;;4.20;;
53654;SDS011;39558;52.028;8.536;2023-04-09T04:35:38;7.75;;;4.70;;
53654;SDS011;39558;52.028;8.536;2023-04-09T04:38:04;6.82;;;5.03;;
53654;SDS011;39558;52.028;8.536;2023-04-09T04:40:30;8.43;;;4.85;;
53654;SDS011;39558;52.028;8.536;2023-04-09T04:42:56;6.53;;;4.40;;
53654;SDS011;39558;52.028;8.536;2023-04-09T04:45:22;7.80;;;4.25;;
53654;SDS011;39558;52.028;8.536;2023-04-09T04:47:47;6.93;;;4.68;;
53654;SDS011;39558;52.028;8.536;2023-04-09T04:50:13;8.23;;;4.97;;
53654;SDS011;39558;52.028;8.536;2023-04-09T04:52:39;8.10;;;5.18;;
53654;SDS011;39558;52.028;8.536;2023-04-09T04:55:05;8.07;;;5.30;;
53654;SDS011;39558;52.028;8.536;2023-04-09T04:57:31;7.18;;;4.45;;
53654;SDS011;39558;52.028;8.536;2023-04-09T04:59:57;7.50;;;5.03;;
53654;SDS011;39558;52.028;8.536;2023-04-09T05:02:23;6.40;;;4.07;;
53654;SDS011;39558;52.028;8.536;2023-04-09T05:04:49;6.50;;;4.38;;
53654;SDS011;39558;52.028;8.536;2023-04-09T05:07:15;7.13;;;4.50;;
53654;SDS011;39558;52.028;8.536;2023-04-09T05:09:41;8.30;;;5.05;;
53654;SDS011;39558;52.028;8.536;2023-04-09T05:12:08;7.40;;;5.22;;
53654;SDS011;39558;52.028;8.536;2023-04-09T05:14:34;7.70;;;5.13;;
53654;SDS011;39558;52.028;8.536;2023-04-09T05:17:00;7.55;;;4.55;;
53654;SDS011;39558;52.028;8.536;2023-04-09T05:19:26;7.43;;;4.75;;
53654;SDS011;39558;52.028;8.536;2023-04-09T05:21:52;6.53;;;4.35;;
53654;SDS011;39558;52.028;8.536;2023-04-09T05:24:17;6.80;;;4.35;;
53654;SDS011;39558;52.028;8.536;2023-04-09T05:26:43;6.95;;;4.45;;
53654;SDS011;39558;52.028;8.536;2023-04-09T05:29:09;6.57;;;4.50;;
53654;SDS011;39558;52.028;8.536;2023-04-09T05:31:35;6.53;;;4.57;;
53654;SDS011;39558;52.028;8.536;2023-04-09T05:34:01;6.00;;;4.38;;
53654;SDS011;39558;52.028;8.536;2023-04-09T05:36:27;6.60;;;4.50;;
53654;SDS011;39558;52.028;8.536;2023-04-09T05:38:53;5.93;;;3.97;;
53654;SDS011;39558;52.028;8.536;2023-04-09T05:41:19;6.32;;;3.72;;
53654;SDS011;39558;52.028;8.536;2023-04-09T05:43:45;7.35;;;4.57;;
53654;SDS011;39558;52.028;8.536;2023-04-09T05:46:10;5.82;;;4.07;;
53654;SDS011;39558;52.028;8.536;2023-04-09T05:48:36;6.07;;;4.18;;
53654;SDS011;39558;52.028;8.536;2023-04-09T05:51:02;7.35;;;4.30;;
53654;SDS011;39558;52.028;8.536;2023-04-09T05:53:29;7.18;;;4.60;;
53654;SDS011;39558;52.028;8.536;2023-04-09T05:55:55;6.32;;;4.18;;
53654;SDS011;39558;52.028;8.536;2023-04-09T05:58:21;7.88;;;4.50;;
53654;SDS011;39558;52.028;8.536;2023-04-09T06:00:47;6.32;;;4.35;;
53654;SDS011;39558;52.028;8.536;2023-04-09T06:03:15;6.55;;;4.38;;
53654;SDS011;39558;52.028;8.536;2023-04-09T06:05:41;5.38;;;3.95;;
53654;SDS011;39558;52.028;8.536;2023-04-09T06:08:07;6.13;;;4.10;;
53654;SDS011;39558;52.028;8.536;2023-04-09T06:10:33;7.40;;;4.25;;
53654;SDS011;39558;52.028;8.536;2023-04-09T06:12:59;6.05;;;4.13;;
53654;SDS011;39558;52.028;8.536;2023-04-09T06:15:24;6.68;;;4.50;;
53654;SDS011;39558;52.028;8.536;2023-04-09T06:17:50;6.30;;;4.13;;
53654;SDS011;39558;52.028;8.536;2023-04-09T06:20:16;6.43;;;3.95;;
53654;SDS011;39558;52.028;8.536;2023-04-09T06:22:42;7.40;;;4.70;;
53654;SDS011;39558;52.028;8.536;2023-04-09T06:25:08;5.82;;;4.00;;
53654;SDS011;39558;52.028;8.536;2023-04-09T06:27:34;6.68;;;4.53;;
53654;SDS011;39558;52.028;8.536;2023-04-09T06:30:00;4.97;;;3.70;;
53654;SDS011;39558;52.028;8.536;2023-04-09T06:32:26;5.78;;;3.80;;
53654;SDS011;39558;52.028;8.536;2023-04-09T06:34:52;6.85;;;4.65;;
53654;SDS011;39558;52.028;8.536;2023-04-09T06:37:18;7.80;;;4.80;;
53654;SDS011;39558;52.028;8.536;2023-04-09T06:39:43;7.60;;;5.10;;
53654;SDS011;39558;52.028;8.536;2023-04-09T06:42:10;6.05;;;4.13;;
53654;SDS011;39558;52.028;8.536;2023-04-09T06:44:36;6.25;;;4.10;;
53654;SDS011;39558;52.028;8.536;2023-04-09T06:47:01;6.18;;;3.92;;
53654;SDS011;39558;52.028;8.536;2023-04-09T06:49:27;5.47;;;3.83;;
53654;SDS011;39558;52.028;8.536;2023-04-09T06:51:53;6.45;;;4.15;;
53654;SDS011;39558;52.028;8.536;2023-04-09T06:54:20;7.63;;;4.72;;
53654;SDS011;39558;52.028;8.536;2023-04-09T06:56:46;7.07;;;4.22;;
53654;SDS011;39558;52.028;8.536;2023-04-09T06:59:12;6.75;;;3.92;;
53654;SDS011;39558;52.028;8.536;2023-04-09T07:01:38;7.70;;;4.68;;
53654;SDS011;39558;52.028;8.536;2023-04-09T07:04:04;7.07;;;4.00;;
53654;SDS011;39558;52.028;8.536;2023-04-09T07:06:30;6.03;;;4.25;;
53654;SDS011;39558;52.028;8.536;2023-04-09T07:08:56;6.55;;;4.53;;
53654;SDS011;39558;52.028;8.536;2023-04-09T07:11:22;8.13;;;3.97;;
53654;SDS011;39558;52.028;8.536;2023-04-09T07:13:48;5.60;;;3.78;;
53654;SDS011;39558;52.028;8.536;2023-04-09T07:16:14;6.47;;;4.28;;
53654;SDS011;39558;52.028;8.536;2023-04-09T07:18:39;7.45;;;4.47;;
53654;SDS011;39558;52.028;8.536;2023-04-09T07:21:05;6.40;;;4.20;;
53654;SDS011;39558;52.028;8.536;2023-04-09T07:23:34;6.07;;;4.15;;
53654;SDS011;39558;52.028;8.536;2023-04-09T07:26:02;7.60;;;4.63;;
53654;SDS011;39558;52.028;8.536;2023-04-09T07:28:28;6.97;;;4.38;;
53654;SDS011;39558;52.028;8.536;2023-04-09T07:30:54;7.03;;;4.40;;
53654;SDS011;39558;52.028;8.536;2023-04-09T07:33:20;7.68;;;4.82;;
53654;SDS011;39558;52.028;8.536;2023-04-09T07:35:46;7.55;;;4.57;;
53654;SDS011;39558;52.028;8.536;2023-04-09T07:38:12;7.85;;;4.53;;
53654;SDS011;39558;52.028;8.536;2023-04-09T07:40:38;6.28;;;4.03;;
53654;SDS011;39558;52.028;8.536;2023-04-09T07:43:04;6.45;;;4.25;;
53654;SDS011;39558;52.028;8.536;2023-04-09T07:45:30;6.13;;;4.25;;
53654;SDS011;39558;52.028;8.536;2023-04-09T07:47:56;6.82;;;4.50;;
53654;SDS011;39558;52.028;8.536;2023-04-09T07:50:22;7.00;;;4.43;;
53654;SDS011;39558;52.028;8.536;2023-04-09T07:52:48;7.57;;;4.60;;
53654;SDS011;39558;52.028;8.536;2023-04-09T07:55:14;7.03;;;3.97;;
53654;SDS011;39558;52.028;8.536;2023-04-09T07:57:40;6.82;;;4.45;;
53654;SDS011;39558;52.028;8.536;2023-04-09T08:00:07;7.03;;;4.50;;
53654;SDS011;39558;52.028;8.536;2023-04-09T08:02:33;6.88;;;4.35;;
53654;SDS011;39558;52.028;8.536;2023-04-09T08:04:59;7.13;;;4.93;;
53654;SDS011;39558;52.028;8.536;2023-04-09T08:07:25;7.18;;;4.57;;
53654;SDS011;39558;52.028;8.536;2023-04-09T08:09:51;7.03;;;4.53;;
53654;SDS011;39558;52.028;8.536;2023-04-09T08:12:16;6.75;;;4.25;;
53654;SDS011;39558;52.028;8.536;2023-04-09T08:14:42;7.13;;;4.70;;
53654;SDS011;39558;52.028;8.536;2023-04-09T08:17:08;6.60;;;4.72;;
53654;SDS011;39558;52.028;8.536;2023-04-09T08:19:34;6.65;;;4.38;;
53654;SDS011;39558;52.028;8.536;2023-04-09T08:22:00;7.78;;;4.72;;
53654;SDS011;39558;52.028;8.536;2023-04-09T08:24:26;6.93;;;4.50;;
53654;SDS011;39558;52.028;8.536;2023-04-09T08:26:52;7.53;;;5.07;;
53654;SDS011;39558;52.028;8.536;2023-04-09T08:29:18;8.15;;;5.00;;
53654;SDS011;39558;52.028;8.536;2023-04-09T08:31:45;7.90;;;4.63;;
53654;SDS011;39558;52.028;8.536;2023-04-09T08:34:11;7.80;;;4.72;;
53654;SDS011;39558;52.028;8.536;2023-04-09T08:36:39;7.60;;;4.55;;
53654;SDS011;39558;52.028;8.536;2023-04-09T08:39:05;7.10;;;4.38;;
53654;SDS011;39558;52.028;8.536;2023-04-09T08:41:30;6.65;;;4.43;;
53654;SDS011;39558;52.028;8.536;2023-04-09T08:43:57;8.57;;;5.32;;
53654;SDS011;39558;52.028;8.536;2023-04-09T08:46:23;7.60;;;4.63;;
53654;SDS011;39558;52.028;8.536;2023-04-09T08:48:50;8.75;;;4.88;;
53654;SDS011;39558;52.028;8.536;2023-04-09T08:51:17;6.88;;;4.95;;
53654;SDS011;39558;52.028;8.536;2023-04-09T08:53:43;6.80;;;4.57;;
53654;SDS011;39558;52.028;8.536;2023-04-09T08:56:10;6.70;;;4.43;;
53654;SDS011;39558;52.028;8.536;2023-04-09T08:58:38;6.50;;;4.43;;
53654;SDS011;39558;52.028;8.536;2023-04-09T09:01:04;7.10;;;4.20;;
53654;SDS011;39558;52.028;8.536;2023-04-09T09:06:31;5.93;;;4.18;;
53654;SDS011;39558;52.028;8.536;2023-04-09T09:09:02;6.47;;;4.47;;
53654;SDS011;39558;52.028;8.536;2023-04-09T09:11:28;6.97;;;4.70;;
53654;SDS011;39558;52.028;8.536;2023-04-09T09:13:57;6.55;;;4.38;;
53654;SDS011;39558;52.028;8.536;2023-04-09T09:16:23;7.57;;;5.05;;
53654;SDS011;39558;52.028;8.536;2023-04-09T09:18:49;7.35;;;4.20;;
53654;SDS011;39558;52.028;8.536;2023-04-09T09:21:16;6.95;;;4.45;;
53654;SDS011;39558;52.028;8.536;2023-04-09T09:23:43;5.57;;;4.00;;
53654;SDS011;39558;52.028;8.536;2023-04-09T09:26:23;6.40;;;4.22;;
53654;SDS011;39558;52.028;8.536;2023-04-09T09:28:49;7.40;;;4.70;;
53654;SDS011;39558;52.028;8.536;2023-04-09T09:31:16;7.80;;;4.68;;
53654;SDS011;39558;52.028;8.536;2023-04-09T09:33:42;6.47;;;4.45;;
53654;SDS011;39558;52.028;8.536;2023-04-09T09:36:08;6.20;;;4.30;;
53654;SDS011;39558;52.028;8.536;2023-04-09T09:38:49;7.00;;;4.35;;
53654;SDS011;39558;52.028;8.536;2023-04-09T09:41:16;6.13;;;4.15;;
53654;SDS011;39558;52.028;8.536;2023-04-09T09:43:43;6.53;;;4.60;;
53654;SDS011;39558;52.028;8.536;2023-04-09T09:46:09;6.75;;;4.72;;
53654;SDS011;39558;52.028;8.536;2023-04-09T09:48:35;5.20;;;3.65;;
53654;SDS011;39558;52.028;8.536;2023-04-09T09:51:01;6.18;;;4.18;;
53654;SDS011;39558;52.028;8.536;2023-04-09T09:53:28;6.53;;;4.00;;
53654;SDS011;39558;52.028;8.536;2023-04-09T09:55:55;6.53;;;4.30;;
53654;SDS011;39558;52.028;8.536;2023-04-09T09:58:22;6.57;;;4.35;;
53654;SDS011;39558;52.028;8.536;2023-04-09T10:00:49;6.68;;;4.45;;
53654;SDS011;39558;52.028;8.536;2023-04-09T10:03:20;6.32;;;4.65;;
53654;SDS011;39558;52.028;8.536;2023-04-09T10:05:47;6.28;;;4.20;;
53654;SDS011;39558;52.028;8.536;2023-04-09T10:08:13;6.78;;;4.13;;
53654;SDS011;39558;52.028;8.536;2023-04-09T10:10:40;7.38;;;4.10;;
53654;SDS011;39558;52.028;8.536;2023-04-09T10:13:07;7.00;;;4.85;;
53654;SDS011;39558;52.028;8.536;2023-04-09T10:15:34;6.70;;;4.50;;
53654;SDS011;39558;52.028;8.536;2023-04-09T10:18:00;7.03;;;4.78;;
53654;SDS011;39558;52.028;8.536;2023-04-09T10:20:35;6.47;;;4.30;;
53654;SDS011;39558;52.028;8.536;2023-04-09T10:23:05;6.47;;;4.05;;
53654;SDS011;39558;52.028;8.536;2023-04-09T10:25:34;7.47;;;4.47;;
53654;SDS011;39558;52.028;8.536;2023-04-09T10:28:00;7.55;;;4.40;;
53654;SDS011;39558;52.028;8.536;2023-04-09T10:30:35;7.13;;;4.22;;
53654;SDS011;39558;52.028;8.536;2023-04-09T10:33:14;6.70;;;4.63;;
53654;SDS011;39558;52.028;8.536;2023-04-09T10:35:41;6.93;;;4.47;;
53654;SDS011;39558;52.028;8.536;2023-04-09T10:38:08;6.35;;;4.32;;
53654;SDS011;39558;52.028;8.536;2023-04-09T10:40:47;6.25;;;4.40;;
53654;SDS011;39558;52.028;8.536;2023-04-09T10:43:17;6.78;;;4.22;;
53654;SDS011;39558;52.028;8.536;2023-04-09T10:45:44;6.10;;;4.18;;
53654;SDS011;39558;52.028;8.536;2023-04-09T10:48:15;6.25;;;4.25;;
53654;SDS011;39558;52.028;8.536;2023-04-09T10:50:43;6.50;;;3.95;;
53654;SDS011;39558;52.028;8.536;2023-04-09T10:53:22;6.28;;;3.97;;
53654;SDS011;39558;52.028;8.536;2023-04-09T10:55:49;6.90;;;4.20;;
53654;SDS011;39558;52.028;8.536;2023-04-09T10:58:15;6.25;;;4.45;;
53654;SDS011;39558;52.028;8.536;2023-04-09T11:00:42;6.07;;;4.20;;
53654;SDS011;39558;52.028;8.536;2023-04-09T11:05:35;6.50;;;4.70;;
53654;SDS011;39558;52.028;8.536;2023-04-09T11:08:05;7.40;;;4.40;;
53654;SDS011;39558;52.028;8.536;2023-04-09T11:10:33;7.35;;;4.85;;
53654;SDS011;39558;52.028;8.536;2023-04-09T11:12:59;6.68;;;4.30;;
53654;SDS011;39558;52.028;8.536;2023-04-09T11:15:25;6.68;;;4.40;;
53654;SDS011;39558;52.028;8.536;2023-04-09T11:17:51;6.07;;;4.03;;
53654;SDS011;39558;52.028;8.536;2023-04-09T11:20:21;6.40;;;4.47;;
53654;SDS011;39558;52.028;8.536;2023-04-09T11:22:48;6.55;;;4.35;;
53654;SDS011;39558;52.028;8.536;2023-04-09T11:25:32;6.72;;;4.13;;
53654;SDS011;39558;52.028;8.536;2023-04-09T11:28:01;6.72;;;4.50;;
53654;SDS011;39558;52.028;8.536;2023-04-09T11:30:27;6.63;;;4.45;;
53654;SDS011;39558;52.028;8.536;2023-04-09T11:32:53;7.30;;;4.35;;
53654;SDS011;39558;52.028;8.536;2023-04-09T11:35:19;6.32;;;3.97;;
53654;SDS011;39558;52.028;8.536;2023-04-09T11:37:46;6.15;;;4.40;;
53654;SDS011;39558;52.028;8.536;2023-04-09T11:40:16;6.72;;;4.15;;
53654;SDS011;39558;52.028;8.536;2023-04-09T11:42:43;6.97;;;4.57;;
53654;SDS011;39558;52.028;8.536;2023-04-09T11:45:09;5.70;;;3.80;;
53654;SDS011;39558;52.028;8.536;2023-04-09T11:47:35;6.05;;;4.20;;
53654;SDS011;39558;52.028;8.536;2023-04-09T11:50:01;6.55;;;3.80;;
53654;SDS011;39558;52.028;8.536;2023-04-09T11:52:27;6.85;;;4.28;;
53654;SDS011;39558;52.028;8.536;2023-04-09T11:54:58;6.85;;;4.30;;
53654;SDS011;39558;52.028;8.536;2023-04-09T11:57:34;6.95;;;4.15;;
53654;SDS011;39558;52.028;8.536;2023-04-09T12:00:03;8.20;;;4.45;;
53654;SDS011;39558;52.028;8.536;2023-04-09T12:05:01;6.50;;;4.05;;
53654;SDS011;39558;52.028;8.536;2023-04-09T12:07:30;6.72;;;4.03;;
53654;SDS011;39558;52.028;8.536;2023-04-09T12:09:56;6.72;;;4.53;;
53654;SDS011;39558;52.028;8.536;2023-04-09T12:12:27;7.95;;;4.75;;
53654;SDS011;39558;52.028;8.536;2023-04-09T12:14:53;6.10;;;3.97;;
53654;SDS011;39558;52.028;8.536;2023-04-09T12:17:22;7.05;;;4.50;;
53654;SDS011;39558;52.028;8.536;2023-04-09T12:19:48;6.28;;;4.00;;
53654;SDS011;39558;52.028;8.536;2023-04-09T12:22:14;6.22;;;3.92;;
53654;SDS011;39558;52.028;8.536;2023-04-09T12:24:40;6.95;;;4.40;;
53654;SDS011;39558;52.028;8.536;2023-04-09T12:27:06;7.60;;;4.50;;
53654;SDS011;39558;52.028;8.536;2023-04-09T12:29:32;7.32;;;4.13;;
53654;SDS011;39558;52.028;8.536;2023-04-09T12:31:58;6.53;;;4.15;;
53654;SDS011;39558;52.028;8.536;2023-04-09T12:34:24;6.40;;;4.20;;
53654;SDS011;39558;52.028;8.536;2023-04-09T12:36:51;7.50;;;4.40;;
53654;SDS011;39558;52.028;8.536;2023-04-09T12:39:17;6.15;;;3.80;;
53654;SDS011;39558;52.028;8.536;2023-04-09T12:41:44;5.93;;;3.63;;
53654;SDS011;39558;52.028;8.536;2023-04-09T12:44:10;6.05;;;3.83;;
53654;SDS011;39558;52.028;8.536;2023-04-09T12:46:36;6.57;;;3.95;;
53654;SDS011;39558;52.028;8.536;2023-04-09T12:49:02;7.50;;;4.85;;
53654;SDS011;39558;52.028;8.536;2023-04-09T12:51:28;7.30;;;4.80;;
53654;SDS011;39558;52.028;8.536;2023-04-09T12:53:54;7.15;;;4.47;;
53654;SDS011;39558;52.028;8.536;2023-04-09T12:56:20;6.80;;;4.30;;
53654;SDS011;39558;52.028;8.536;2023-04-09T12:58:46;6.07;;;3.95;;
53654;SDS011;39558;52.028;8.536;2023-04-09T13:01:12;6.45;;;3.97;;
53654;SDS011;39558;52.028;8.536;2023-04-09T13:03:38;5.85;;;4.22;;
53654;SDS011;39558;52.028;8.536;2023-04-09T13:06:05;6.55;;;4.15;;
53654;SDS011;39558;52.028;8.536;2023-04-09T13:08:31;6.03;;;4.00;;
53654;SDS011;39558;52.028;8.536;2023-04-09T13:10:56;8.05;;;4.88;;
53654;SDS011;39558;52.028;8.536;2023-04-09T13:13:22;8.02;;;4.70;;
53654;SDS011;39558;52.028;8.536;2023-04-09T13:15:48;6.57;;;4.28;;
53654;SDS011;39558;52.028;8.536;2023-04-09T13:18:14;7.45;;;4.85;;
53654;SDS011;39558;52.028;8.536;2023-04-09T13:20:40;6.45;;;3.95;;
53654;SDS011;39558;52.028;8.536;2023-04-09T13:23:06;7.80;;;4.28;;
53654;SDS011;39558;52.028;8.536;2023-04-09T13:25:32;6.45;;;3.80;;
53654;SDS011;39558;52.028;8.536;2023-04-09T13:27:58;6.68;;;4.20;;
53654;SDS011;39558;52.028;8.536;2023-04-09T13:30:24;6.47;;;4.22;;
53654;SDS011;39558;52.028;8.536;2023-04-09T13:32:50;7.45;;;4.40;;
53654;SDS011;39558;52.028;8.536;2023-04-09T13:35:16;6.05;;;3.45;;
53654;SDS011;39558;52.028;8.536;2023-04-09T13:37:43;5.95;;;4.00;;
53654;SDS011;39558;52.028;8.536;2023-04-09T13:40:08;6.22;;;4.18;;
53654;SDS011;39558;52.028;8.536;2023-04-09T13:42:34;7.22;;;4.63;;
53654;SDS011;39558;52.028;8.536;2023-04-09T13:45:03;6.85;;;4.60;;
53654;SDS011;39558;52.028;8.536;2023-04-09T13:47:29;6.82;;;4.03;;
53654;SDS011;39558;52.028;8.536;2023-04-09T13:49:55;7.03;;;4.68;;
53654;SDS011;39558;52.028;8.536;2023-04-09T13:52:21;6.63;;;4.00;;
53654;SDS011;39558;52.028;8.536;2023-04-09T13:54:48;6.28;;;3.75;;
53654;SDS011;39558;52.028;8.536;2023-04-09T13:57:13;6.13;;;3.97;;
53654;SDS011;39558;52.028;8.536;2023-04-09T13:59:40;6.93;;;3.88;;
53654;SDS011;39558;52.028;8.536;2023-04-09T14:02:07;6.32;;;3.83;;
53654;SDS011;39558;52.028;8.536;2023-04-09T14:04:33;5.75;;;3.83;;
53654;SDS011;39558;52.028;8.536;2023-04-09T14:06:59;5.97;;;3.70;;
53654;SDS011;39558;52.028;8.536;2023-04-09T14:09:25;7.22;;;4.30;;
53654;SDS011;39558;52.028;8.536;2023-04-09T14:11:51;6.43;;;3.97;;
53654;SDS011;39558;52.028;8.536;2023-04-09T14:14:19;6.63;;;4.10;;
53654;SDS011;39558;52.028;8.536;2023-04-09T14:16:45;6.40;;;4.10;;
53654;SDS011;39558;52.028;8.536;2023-04-09T14:19:12;6.72;;;4.20;;
53654;SDS011;39558;52.028;8.536;2023-04-09T14:21:38;6.32;;;4.10;;
53654;SDS011;39558;52.028;8.536;2023-04-09T14:24:04;5.15;;;3.40;;
53654;SDS011;39558;52.028;8.536;2023-04-09T14:26:30;5.70;;;3.78;;
53654;SDS011;39558;52.028;8.536;2023-04-09T14:28:56;5.80;;;3.97;;
53654;SDS011;39558;52.028;8.536;2023-04-09T14:31:22;6.68;;;3.92;;
53654;SDS011;39558;52.028;8.536;2023-04-09T14:33:48;6.85;;;4.10;;
53654;SDS011;39558;52.028;8.536;2023-04-09T14:36:14;5.53;;;3.38;;
53654;SDS011;39558;52.028;8.536;2023-04-09T14:38:40;5.60;;;3.70;;
53654;SDS011;39558;52.028;8.536;2023-04-09T14:41:06;7.30;;;4.15;;
53654;SDS011;39558;52.028;8.536;2023-04-09T14:43:32;6.15;;;3.92;;
53654;SDS011;39558;52.028;8.536;2023-04-09T14:45:58;5.78;;;3.90;;
53654;SDS011;39558;52.028;8.536;2023-04-09T14:48:24;6.82;;;4.28;;
53654;SDS011;39558;52.028;8.536;2023-04-09T14:50:50;6.22;;;3.72;;
53654;SDS011;39558;52.028;8.536;2023-04-09T14:53:16;6.50;;;3.58;;